Time;durP1;ratioP1;P1;durP2;ratioP2;P2;SDS_P1;SDS_P2;PMS_P1;PMS_P2;Temp;Humidity;BMP_temperature;BMP_pressure;BME280_temperature;BME280_humidity;BME280_pressure;Samples;Min_cycle;Max_cycle;Signal;HPM_P1;HPM_P2
2021/12/17 00:01:00;;;;;;;12.75;6.43;;;10.00;58.20;;;;;;5133035;27;34078;-76
2021/12/17 00:03:37;;;;;;;10.70;6.70;;;10.00;58.20;;;;;;5132805;27;34306;-76
2021/12/17 00:08:51;;;;;;;11.68;7.03;;;10.00;58.20;;;;;;5149995;27;34531;-76
2021/12/17 00:11:18;;;;;;;10.98;6.65;;;10.00;58.20;;;;;;5099289;27;34123;-76
2021/12/17 00:13:46;;;;;;;13.55;7.10;;;10.00;58.20;;;;;;5132823;27;36194;-76
2021/12/17 00:16:18;;;;;;;11.27;6.38;;;10.00;58.20;;;;;;5131958;27;34071;-76
2021/12/17 00:19:04;;;;;;;13.55;7.57;;;10.00;58.20;;;;;;5131537;27;34281;-76
2021/12/17 00:43:55;;;;;;;11.90;7.63;;;10.00;58.20;;;;;;5150267;27;34209;-76
2021/12/17 00:48:36;;;;;;;13.70;7.90;;;10.00;58.20;;;;;;5134374;27;34367;-75
2021/12/17 00:53:50;;;;;;;15.50;8.25;;;10.10;58.20;;;;;;5133778;27;34102;-76
2021/12/17 00:56:16;;;;;;;16.80;8.88;;;10.10;58.20;;;;;;5148871;27;34207;-76
2021/12/17 00:58:42;;;;;;;14.15;8.07;;;10.10;58.10;;;;;;5130278;27;34447;-76
2021/12/17 01:01:08;;;;;;;14.85;8.32;;;10.10;58.10;;;;;;5130990;27;34377;-76
2021/12/17 01:03:35;;;;;;;14.50;7.53;;;10.10;58.10;;;;;;5149455;27;34445;-76
2021/12/17 01:06:01;;;;;;;12.02;7.70;;;10.10;58.10;;;;;;5130687;27;36591;-76
2021/12/17 01:08:27;;;;;;;11.95;7.55;;;10.10;58.10;;;;;;5150345;27;34227;-76
2021/12/17 01:10:55;;;;;;;16.45;8.60;;;10.10;58.10;;;;;;5148119;27;34191;-76
2021/12/17 01:13:23;;;;;;;14.05;6.55;;;10.20;58.10;;;;;;5130476;27;34573;-76
2021/12/17 01:15:51;;;;;;;11.20;7.28;;;10.20;57.80;;;;;;5128996;27;35613;-76
2021/12/17 01:18:20;;;;;;;13.38;7.55;;;10.20;57.90;;;;;;5131324;27;34028;-76
2021/12/17 01:21:08;;;;;;;12.88;7.25;;;10.30;57.90;;;;;;5147730;27;34144;-76
2021/12/17 01:24:02;;;;;;;10.63;7.22;;;10.30;57.80;;;;;;5119562;27;34548;-76
2021/12/17 01:40:48;;;;;;;12.20;6.95;;;10.50;57.60;;;;;;5130792;27;34498;-75
2021/12/17 01:42:34;;;;;;;17.08;8.88;;;10.40;57.40;;;;;;5131218;27;34549;-75
2021/12/17 01:45:00;;;;;;;14.77;8.75;;;10.50;57.60;;;;;;5130875;27;34489;-75
2021/12/17 01:47:27;;;;;;;15.45;8.52;;;10.50;57.50;;;;;;5129185;27;34495;-75
2021/12/17 02:00:43;;;;;;;14.25;9.55;;;10.50;57.30;;;;;;5148086;27;34201;-75
2021/12/17 02:03:12;;;;;;;14.63;8.57;;;10.50;57.30;;;;;;5148841;27;35120;-75
2021/12/17 02:05:39;;;;;;;15.25;9.43;;;10.50;57.30;;;;;;5129549;27;33931;-75
2021/12/17 02:08:05;;;;;;;13.93;8.68;;;10.50;57.40;;;;;;5113163;27;35750;-75
2021/12/17 02:11:06;;;;;;;13.25;8.00;;;10.60;57.30;;;;;;5127831;27;34295;-75
2021/12/17 02:21:52;;;;;;;16.15;8.93;;;10.60;57.30;;;;;;5148558;27;34324;-75
2021/12/17 02:32:20;;;;;;;14.10;8.52;;;10.50;57.30;;;;;;5147424;27;34133;-75
2021/12/17 02:37:29;;;;;;;14.30;8.38;;;10.50;57.30;;;;;;5146958;27;34092;-75
2021/12/17 02:45:32;;;;;;;11.10;7.38;;;10.50;57.20;;;;;;5135040;27;34218;-75
2021/12/17 02:45:32;;;;;;;11.93;7.03;;;10.50;57.20;;;;;;5135093;27;34376;-76
2021/12/17 02:48:09;;;;;;;8.95;6.00;;;10.40;57.10;;;;;;5149658;27;34552;-75
2021/12/17 02:50:39;;;;;;;9.93;6.72;;;10.40;57.00;;;;;;5115008;27;35666;-76
2021/12/17 02:53:07;;;;;;;13.60;7.65;;;10.40;57.10;;;;;;5099041;27;34315;-75
2021/12/17 02:55:37;;;;;;;9.27;5.88;;;10.40;57.10;;;;;;5132778;27;34217;-76
2021/12/17 02:58:06;;;;;;;11.55;7.05;;;10.40;56.80;;;;;;5099008;27;34168;-75
2021/12/17 03:00:34;;;;;;;12.02;7.38;;;10.40;56.90;;;;;;5132817;27;36516;-75
2021/12/17 03:03:03;;;;;;;16.50;8.90;;;10.40;57.00;;;;;;5117690;27;34235;-75
2021/12/17 03:05:30;;;;;;;12.05;7.28;;;10.40;57.00;;;;;;5151943;27;34320;-75
2021/12/17 03:07:57;;;;;;;8.13;5.32;;;10.40;57.00;;;;;;5149962;27;34653;-75
2021/12/17 03:10:24;;;;;;;8.95;5.30;;;10.40;56.80;;;;;;5131983;27;36357;-75
2021/12/17 03:12:56;;;;;;;10.23;5.65;;;10.40;56.80;;;;;;5132090;27;34313;-76
2021/12/17 03:15:35;;;;;;;9.13;5.72;;;10.40;56.90;;;;;;5126300;27;34325;-75
2021/12/17 03:26:17;;;;;;;8.02;5.18;;;10.40;56.80;;;;;;5130202;27;34281;-76
2021/12/17 03:28:47;;;;;;;7.78;5.55;;;10.40;56.80;;;;;;5111488;27;34178;-75
2021/12/17 03:31:14;;;;;;;9.98;5.95;;;10.40;57.60;;;;;;5093875;27;35718;-75
2021/12/17 03:33:42;;;;;;;8.75;5.82;;;10.40;56.80;;;;;;5129490;27;34110;-75
2021/12/17 03:36:14;;;;;;;9.27;6.47;;;10.40;56.80;;;;;;5110399;27;34258;-75
2021/12/17 03:38:43;;;;;;;11.93;6.30;;;10.40;56.80;;;;;;5111790;27;34453;-75
2021/12/17 03:41:18;;;;;;;11.05;6.63;;;10.30;57.50;;;;;;5092979;27;35868;-75
2021/12/17 03:43:45;;;;;;;12.63;6.35;;;10.30;56.80;;;;;;5110120;27;34145;-75
2021/12/17 03:46:11;;;;;;;10.55;6.70;;;10.30;56.80;;;;;;5110051;27;34441;-75
2021/12/17 03:48:39;;;;;;;10.65;5.50;;;10.30;56.80;;;;;;5110788;27;34400;-75
2021/12/17 03:51:12;;;;;;;7.13;4.13;;;10.30;57.40;;;;;;5108525;27;36421;-75
2021/12/17 03:53:39;;;;;;;7.70;4.18;;;10.30;56.60;;;;;;5109232;27;34217;-75
2021/12/17 03:56:06;;;;;;;5.75;3.70;;;10.30;56.60;;;;;;5110740;27;34307;-75
2021/12/17 03:58:32;;;;;;;6.93;3.30;;;10.30;56.70;;;;;;5127959;27;34003;-75
2021/12/17 04:00:58;;;;;;;3.70;2.80;;;10.30;56.60;;;;;;5109813;27;36515;-75
2021/12/17 04:03:24;;;;;;;5.53;3.20;;;10.30;56.30;;;;;;5109067;27;34228;-75
2021/12/17 04:05:50;;;;;;;3.40;2.65;;;10.30;56.50;;;;;;5126909;27;34544;-75
2021/12/17 04:08:16;;;;;;;2.53;2.17;;;10.30;56.40;;;;;;5110643;27;34246;-75
2021/12/17 04:10:47;;;;;;;3.53;2.20;;;10.20;56.90;;;;;;5107935;27;35582;-75
2021/12/17 04:16:05;;;;;;;3.53;2.30;;;10.20;56.10;;;;;;5137217;27;34145;-75
2021/12/17 04:18:33;;;;;;;2.15;1.83;;;10.20;56.10;;;;;;5148668;27;34186;-75
2021/12/17 04:21:02;;;;;;;3.65;2.15;;;10.20;56.00;;;;;;5147209;27;34962;-75
2021/12/17 04:23:28;;;;;;;2.90;2.03;;;10.20;56.10;;;;;;5111988;27;34295;-75
2021/12/17 04:25:55;;;;;;;2.65;2.25;;;10.20;56.10;;;;;;5129187;27;34449;-75
2021/12/17 04:28:22;;;;;;;3.38;2.22;;;10.20;56.10;;;;;;5149338;27;34528;-75
2021/12/17 04:30:48;;;;;;;3.50;2.20;;;10.20;56.10;;;;;;5128893;27;36123;-76
2021/12/17 04:33:14;;;;;;;3.38;2.40;;;10.20;56.00;;;;;;5129372;27;34321;-75
2021/12/17 04:35:42;;;;;;;2.95;2.30;;;10.10;56.00;;;;;;5130618;27;34118;-76
2021/12/17 04:38:09;;;;;;;1.70;1.60;;;10.20;56.00;;;;;;5132174;27;34204;-76
2021/12/17 04:40:37;;;;;;;4.05;2.17;;;10.10;55.90;;;;;;5112639;27;36889;-76
2021/12/17 04:43:18;;;;;;;2.75;2.00;;;10.10;56.10;;;;;;5130759;27;34274;-75
2021/12/17 04:45:57;;;;;;;3.30;2.10;;;10.10;56.00;;;;;;5147116;27;34228;-76
2021/12/17 04:59:11;;;;;;;1.60;1.45;;;10.10;56.00;;;;;;5117405;27;34091;-76
2021/12/17 05:01:37;;;;;;;1.63;1.52;;;10.10;55.90;;;;;;5146409;27;34405;-75
2021/12/17 05:04:03;;;;;;;2.00;1.52;;;10.00;55.80;;;;;;5147488;27;34178;-75
2021/12/17 05:06:31;;;;;;;3.03;1.52;;;10.00;55.90;;;;;;5129078;27;34327;-75
2021/12/17 05:09:05;;;;;;;1.90;1.52;;;10.00;55.80;;;;;;5129444;27;34189;-75
2021/12/17 05:19:50;;;;;;;2.25;1.55;;;10.00;55.80;;;;;;5117604;27;34195;-76
2021/12/17 05:22:18;;;;;;;1.95;1.60;;;10.00;55.70;;;;;;5147051;27;34095;-75
2021/12/17 05:24:44;;;;;;;1.80;1.60;;;10.00;55.80;;;;;;5147643;27;34136;-76
2021/12/17 05:27:10;;;;;;;2.22;1.65;;;10.00;55.80;;;;;;5129376;27;34315;-75
2021/12/17 05:29:36;;;;;;;1.95;1.73;;;10.00;55.60;;;;;;5128998;27;34578;-75
2021/12/17 05:32:03;;;;;;;1.65;1.55;;;10.00;55.70;;;;;;5094396;27;35693;-75
2021/12/17 05:34:30;;;;;;;2.58;1.70;;;10.00;55.70;;;;;;5112483;27;34252;-76
2021/12/17 05:36:56;;;;;;;2.00;1.52;;;9.90;55.50;;;;;;5146779;27;34395;-76
2021/12/17 05:39:22;;;;;;;1.80;1.42;;;9.90;55.70;;;;;;5128900;27;34422;-75
2021/12/17 05:41:48;;;;;;;1.55;1.45;;;9.90;55.70;;;;;;5128977;27;35069;-75
2021/12/17 05:44:16;;;;;;;2.70;2.15;;;10.00;55.60;;;;;;5111457;27;34167;-75
2021/12/17 05:46:50;;;;;;;1.98;1.65;;;10.00;55.60;;;;;;5110782;27;34273;-75
2021/12/17 05:49:19;;;;;;;2.13;1.73;;;10.00;55.50;;;;;;5129135;27;34296;-75
2021/12/17 05:51:46;;;;;;;2.38;2.03;;;10.00;55.50;;;;;;5127116;27;35592;-75
2021/12/17 05:54:13;;;;;;;2.67;1.60;;;10.00;55.40;;;;;;5127509;27;34569;-75
2021/12/17 05:56:40;;;;;;;1.98;1.77;;;10.00;55.50;;;;;;5147177;27;34313;-75
2021/12/17 05:59:07;;;;;;;1.60;1.50;;;9.90;55.40;;;;;;5147292;27;34416;-75
2021/12/17 06:01:33;;;;;;;1.73;1.63;;;10.00;55.40;;;;;;5127706;27;34378;-75
2021/12/17 06:03:59;;;;;;;2.20;1.70;;;9.90;55.30;;;;;;5145706;27;34007;-75
2021/12/17 06:06:31;;;;;;;1.92;1.48;;;10.00;55.20;;;;;;5129030;27;34234;-75
2021/12/17 06:09:00;;;;;;;2.47;1.77;;;9.90;55.10;;;;;;5093815;27;34025;-75
2021/12/17 06:11:26;;;;;;;2.10;1.60;;;9.90;55.20;;;;;;5127097;27;36216;-75
2021/12/17 06:13:52;;;;;;;2.22;1.73;;;9.90;55.10;;;;;;5145882;27;34032;-75
2021/12/17 06:16:18;;;;;;;2.05;1.85;;;9.90;55.20;;;;;;5145006;27;34185;-75
2021/12/17 06:18:44;;;;;;;2.00;1.80;;;9.90;56.00;;;;;;5110120;27;34266;-75
2021/12/17 06:21:10;;;;;;;2.42;1.73;;;9.90;55.20;;;;;;5092133;27;36363;-75
2021/12/17 06:23:37;;;;;;;2.03;1.58;;;9.90;55.90;;;;;;5127875;27;34410;-75
2021/12/17 06:26:04;;;;;;;2.08;1.77;;;9.90;55.00;;;;;;5128188;27;34462;-75
2021/12/17 06:28:30;;;;;;;1.50;1.40;;;9.80;54.80;;;;;;5122451;27;34245;-75
2021/12/17 06:30:56;;;;;;;1.42;1.33;;;9.80;54.90;;;;;;5106607;27;36473;-75
2021/12/17 06:33:22;;;;;;;3.72;1.75;;;9.80;54.90;;;;;;5107705;27;34199;-75
2021/12/17 06:35:49;;;;;;;1.75;1.52;;;9.90;54.90;;;;;;5124620;27;34084;-75
2021/12/17 06:38:15;;;;;;;1.90;1.60;;;9.80;54.80;;;;;;5124264;27;34145;-75
2021/12/17 06:40:41;;;;;;;2.13;1.85;;;9.80;55.00;;;;;;5089670;27;36647;-76
2021/12/17 06:43:07;;;;;;;2.63;1.65;;;9.80;54.80;;;;;;5125696;27;34386;-75
2021/12/17 06:45:43;;;;;;;2.33;1.75;;;9.80;54.80;;;;;;5106573;27;34345;-75
2021/12/17 06:48:10;;;;;;;1.92;1.67;;;9.80;54.80;;;;;;5106183;27;34132;-75
2021/12/17 06:56:42;;;;;;;1.85;1.60;;;9.80;54.40;;;;;;5123935;27;34189;-75
2021/12/17 07:07:31;;;;;;;2.65;1.90;;;9.80;54.50;;;;;;5124005;27;34465;-75
2021/12/17 07:10:04;;;;;;;2.85;1.98;;;9.70;54.60;;;;;;5094221;27;34392;-76
2021/12/17 07:23:23;;;;;;;3.78;2.50;;;9.80;54.50;;;;;;5123965;27;34215;-75
2021/12/17 07:28:56;;;;;;;4.50;2.53;;;9.70;54.40;;;;;;5111320;27;34506;-75
2021/12/17 07:34:07;;;;;;;6.03;2.20;;;9.60;54.40;;;;;;5113187;27;34296;-75
2021/12/17 07:36:44;;;;;;;3.35;2.40;;;9.60;54.20;;;;;;5109577;27;34200;-75
2021/12/17 07:39:10;;;;;;;3.28;2.40;;;9.60;54.50;;;;;;5109405;27;34304;-75
2021/12/17 07:41:36;;;;;;;2.75;2.28;;;9.60;54.60;;;;;;5093027;27;34265;-75
2021/12/17 07:44:02;;;;;;;2.92;2.30;;;9.60;54.30;;;;;;5108885;27;35900;-75
2021/12/17 07:46:32;;;;;;;2.60;2.20;;;9.60;54.40;;;;;;5110159;27;34153;-76
2021/12/17 07:48:58;;;;;;;3.28;2.22;;;9.60;54.50;;;;;;5129758;27;34224;-75
2021/12/17 07:51:24;;;;;;;3.05;2.70;;;9.60;54.40;;;;;;5109451;27;34121;-75
2021/12/17 07:53:53;;;;;;;2.15;1.95;;;9.60;54.50;;;;;;5125658;27;35647;-75
2021/12/17 07:56:23;;;;;;;3.42;2.28;;;9.60;54.40;;;;;;5108278;27;34127;-75
2021/12/17 07:58:49;;;;;;;3.15;2.10;;;9.60;54.30;;;;;;5110095;27;34167;-75
2021/12/17 08:01:15;;;;;;;2.33;2.13;;;9.50;54.20;;;;;;5109248;27;34229;-75
2021/12/17 08:03:42;;;;;;;2.90;1.83;;;9.50;54.30;;;;;;5108895;27;35645;-75
2021/12/17 08:06:09;;;;;;;2.65;2.10;;;9.50;54.30;;;;;;5128329;27;34381;-75
2021/12/17 08:08:35;;;;;;;2.55;2.35;;;9.50;54.30;;;;;;5092469;27;34186;-74
2021/12/17 08:11:02;;;;;;;2.50;2.28;;;9.50;54.30;;;;;;5092338;27;34244;-75
2021/12/17 08:13:32;;;;;;;3.42;2.47;;;9.50;54.20;;;;;;5126066;27;34236;-75
2021/12/17 08:24:44;;;;;;;2.88;2.30;;;9.40;54.10;;;;;;5125519;27;34558;-75
2021/12/17 08:32:17;;;;;;;2.72;2.20;;;9.30;53.80;;;;;;5128312;27;34406;-75
2021/12/17 08:34:43;;;;;;;2.33;2.10;;;9.30;53.80;;;;;;5108555;27;35895;-75
2021/12/17 08:37:10;;;;;;;2.03;1.80;;;9.30;53.90;;;;;;5107524;27;34397;-74
2021/12/17 08:39:37;;;;;;;2.63;2.08;;;9.30;53.50;;;;;;5109855;27;34185;-75
2021/12/17 08:42:05;;;;;;;2.50;2.05;;;9.30;53.70;;;;;;5109467;27;34307;-75
2021/12/17 08:44:31;;;;;;;4.40;2.38;;;9.30;53.80;;;;;;5126262;27;34376;-75
2021/12/17 08:46:57;;;;;;;3.17;2.50;;;9.40;53.60;;;;;;5126151;27;34205;-75
2021/12/17 08:49:23;;;;;;;3.40;2.33;;;9.40;53.60;;;;;;5107799;27;34260;-75
2021/12/17 08:51:55;;;;;;;2.67;1.92;;;9.40;53.60;;;;;;5108418;27;34294;-75
2021/12/17 08:54:21;;;;;;;2.58;2.20;;;9.40;53.70;;;;;;5091673;27;35745;-75
2021/12/17 08:56:49;;;;;;;3.35;2.35;;;9.40;53.50;;;;;;5107621;27;34506;-75
2021/12/17 08:59:17;;;;;;;3.42;2.50;;;9.40;53.40;;;;;;5126293;27;34248;-75
2021/12/17 09:01:44;;;;;;;3.75;2.40;;;9.50;53.40;;;;;;5091305;27;34192;-75
2021/12/17 09:04:11;;;;;;;2.55;2.30;;;9.50;53.30;;;;;;5125237;27;35420;-74
2021/12/17 09:06:37;;;;;;;4.05;2.63;;;9.50;53.30;;;;;;5107549;27;34130;-75
2021/12/17 09:09:04;;;;;;;3.40;2.63;;;9.50;53.30;;;;;;5125613;27;34186;-75
2021/12/17 09:11:30;;;;;;;2.90;2.30;;;9.60;53.40;;;;;;5090412;27;34223;-75
2021/12/17 09:13:58;;;;;;;2.88;2.53;;;9.60;53.40;;;;;;5106811;27;36404;-74
2021/12/17 09:16:24;;;;;;;2.70;2.38;;;9.60;53.30;;;;;;5089658;27;34400;-74
2021/12/17 09:18:52;;;;;;;3.08;2.45;;;9.70;53.30;;;;;;5125130;27;34336;-75
2021/12/17 09:21:19;;;;;;;2.47;2.20;;;9.70;53.00;;;;;;5107473;27;34361;-75
2021/12/17 09:23:46;;;;;;;3.20;2.55;;;9.60;53.10;;;;;;5106334;27;36700;-75
2021/12/17 09:26:14;;;;;;;2.45;2.25;;;9.70;53.10;;;;;;5108563;27;34161;-75
2021/12/17 09:28:41;;;;;;;4.03;2.60;;;9.60;53.00;;;;;;5108777;27;34043;-75
2021/12/17 09:31:12;;;;;;;2.88;2.55;;;9.70;52.60;;;;;;5108355;27;34170;-75
2021/12/17 09:33:40;;;;;;;3.85;2.42;;;9.60;52.80;;;;;;5126477;27;34949;-75
2021/12/17 09:36:07;;;;;;;2.95;2.53;;;9.60;52.90;;;;;;5109293;27;34104;-74
2021/12/17 09:38:33;;;;;;;2.50;2.30;;;9.70;53.10;;;;;;5108629;27;34196;-74
2021/12/17 09:41:00;;;;;;;2.60;2.20;;;9.70;53.00;;;;;;5108628;27;34129;-74
2021/12/17 09:43:29;;;;;;;3.03;2.50;;;9.70;53.00;;;;;;5125101;27;35716;-75
2021/12/17 09:45:57;;;;;;;2.40;2.20;;;9.70;52.90;;;;;;5141938;27;34111;-74
2021/12/17 09:48:23;;;;;;;3.50;2.97;;;9.70;52.80;;;;;;5106642;27;34047;-74
2021/12/17 09:50:52;;;;;;;3.75;2.60;;;9.70;52.80;;;;;;5107489;27;34412;-74
2021/12/17 09:53:18;;;;;;;4.88;2.78;;;9.70;52.80;;;;;;5142658;27;36860;-74
2021/12/17 09:55:44;;;;;;;3.45;2.80;;;9.70;52.70;;;;;;5106843;27;34241;-75
2021/12/17 09:58:12;;;;;;;4.43;2.55;;;9.70;52.70;;;;;;5107856;27;34130;-74
2021/12/17 10:00:38;;;;;;;3.45;2.75;;;9.70;53.20;;;;;;5126619;27;34368;-74
2021/12/17 10:03:08;;;;;;;2.85;2.33;;;9.70;52.80;;;;;;5106813;27;35756;-75
2021/12/17 10:05:36;;;;;;;3.28;2.58;;;9.70;52.50;;;;;;5090870;27;34258;-75
2021/12/17 10:08:09;;;;;;;3.58;2.70;;;9.70;52.70;;;;;;5090942;27;34170;-75
2021/12/17 10:10:43;;;;;;;2.53;2.20;;;9.70;52.70;;;;;;5091173;27;34067;-75
2021/12/17 10:13:26;;;;;;;3.13;2.72;;;9.80;52.40;;;;;;5108527;27;35799;-75
2021/12/17 10:15:56;;;;;;;3.22;2.30;;;9.80;51.10;;;;;;5090685;27;34258;-75
2021/12/17 10:18:42;;;;;;;3.45;2.47;;;9.90;52.30;;;;;;5088786;27;34088;-74
2021/12/17 10:21:11;;;;;;;3.97;2.60;;;10.00;51.30;;;;;;5106523;27;34321;-74
2021/12/17 10:23:41;;;;;;;2.80;2.50;;;10.10;52.40;;;;;;5106103;27;35907;-74
2021/12/17 10:26:13;;;;;;;3.17;2.33;;;10.10;52.10;;;;;;5106791;27;34468;-74
2021/12/17 10:28:52;;;;;;;3.05;2.33;;;10.00;51.90;;;;;;5106622;27;34336;-74
2021/12/17 10:31:19;;;;;;;4.15;2.53;;;10.00;50.60;;;;;;5125533;27;34067;-74
2021/12/17 10:33:54;;;;;;;2.88;2.40;;;9.90;51.90;;;;;;5107734;27;34206;-74
2021/12/17 10:36:37;;;;;;;2.97;2.20;;;9.90;51.20;;;;;;5107690;27;34115;-74
2021/12/17 10:39:11;;;;;;;2.80;2.50;;;9.90;50.90;;;;;;5107519;27;34172;-74
2021/12/17 10:41:49;;;;;;;3.05;2.47;;;9.90;52.20;;;;;;5089487;27;34205;-74
2021/12/17 10:44:15;;;;;;;5.38;2.47;;;9.90;51.10;;;;;;5106847;27;35535;-75
2021/12/17 10:47:06;;;;;;;5.03;2.60;;;9.80;52.00;;;;;;5107294;27;34182;-74
2021/12/17 10:49:32;;;;;;;2.88;2.55;;;9.80;50.70;;;;;;5105869;27;34104;-75
2021/12/17 10:52:08;;;;;;;3.35;2.53;;;9.80;52.00;;;;;;5104943;27;34192;-74
2021/12/17 10:54:34;;;;;;;4.38;2.83;;;9.80;51.70;;;;;;5104901;27;35694;-74
2021/12/17 10:57:00;;;;;;;3.67;2.42;;;9.80;52.10;;;;;;5105021;27;34444;-74
2021/12/17 10:59:31;;;;;;;4.35;2.58;;;9.90;52.30;;;;;;5122909;27;34274;-74
2021/12/17 11:02:05;;;;;;;3.22;2.58;;;9.90;51.90;;;;;;5108367;27;34302;-74
2021/12/17 11:04:34;;;;;;;4.25;2.70;;;10.00;51.90;;;;;;5108233;27;35975;-74
2021/12/17 11:07:04;;;;;;;4.10;2.80;;;10.10;51.80;;;;;;5091570;27;34152;-74
2021/12/17 11:09:48;;;;;;;3.53;2.50;;;10.10;51.60;;;;;;5127075;27;34276;-74
2021/12/17 11:12:31;;;;;;;4.72;2.83;;;10.20;50.30;;;;;;5109321;27;34296;-75
2021/12/17 11:15:10;;;;;;;3.30;2.45;;;10.20;50.20;;;;;;5092569;27;35552;-74
2021/12/17 11:17:38;;;;;;;3.72;2.65;;;10.30;51.00;;;;;;5108519;27;34291;-75
2021/12/17 11:20:11;;;;;;;3.70;2.42;;;10.50;51.40;;;;;;5142556;27;34258;-74
2021/12/17 11:22:39;;;;;;;3.15;2.70;;;10.50;51.20;;;;;;5125955;27;34198;-74
2021/12/17 11:25:07;;;;;;;3.58;2.40;;;10.60;51.10;;;;;;5108712;27;36351;-75
2021/12/17 11:27:33;;;;;;;3.40;2.28;;;10.60;50.90;;;;;;5109240;27;34200;-74
2021/12/17 11:30:02;;;;;;;2.97;2.50;;;10.60;50.90;;;;;;5092370;27;34189;-76
2021/12/17 11:32:28;;;;;;;4.18;2.38;;;10.60;50.70;;;;;;5109230;27;34152;-74
2021/12/17 11:34:54;;;;;;;2.85;2.42;;;10.50;50.90;;;;;;5126864;27;34343;-74
2021/12/17 11:37:23;;;;;;;5.45;2.90;;;10.50;51.00;;;;;;5092379;27;34023;-74
2021/12/17 11:39:56;;;;;;;4.53;2.75;;;10.40;51.00;;;;;;5128816;27;34244;-74
2021/12/17 11:42:47;;;;;;;3.47;2.40;;;10.40;50.70;;;;;;5126450;27;34157;-74
2021/12/17 11:45:24;;;;;;;4.40;2.30;;;10.30;48.90;;;;;;5143362;27;35804;-74
2021/12/17 11:47:52;;;;;;;4.10;2.50;;;10.20;50.30;;;;;;5107574;27;34476;-75
2021/12/17 11:50:19;;;;;;;3.25;2.25;;;10.20;51.30;;;;;;5109522;27;34353;-75
2021/12/17 11:52:48;;;;;;;3.10;2.55;;;10.10;51.20;;;;;;5091486;27;34653;-75
2021/12/17 11:55:33;;;;;;;2.85;2.38;;;10.10;51.20;;;;;;5091568;27;35567;-75
2021/12/17 11:58:04;;;;;;;3.17;2.35;;;10.10;49.70;;;;;;5107907;27;34280;-74
2021/12/17 12:00:49;;;;;;;3.83;2.70;;;10.00;51.30;;;;;;5107443;27;34324;-74
2021/12/17 12:03:19;;;;;;;4.18;2.47;;;10.00;51.20;;;;;;5090244;27;34178;-74
2021/12/17 12:05:49;;;;;;;3.53;2.47;;;9.90;51.20;;;;;;5107762;27;34273;-74
2021/12/17 12:08:50;;;;;;;3.28;2.35;;;9.90;51.40;;;;;;5108034;27;34243;-74
2021/12/17 12:11:22;;;;;;;3.00;2.13;;;9.90;49.30;;;;;;5141046;27;34305;-74
2021/12/17 12:13:50;;;;;;;2.40;2.03;;;9.90;51.40;;;;;;5127969;27;34090;-75
2021/12/17 12:16:20;;;;;;;3.65;2.40;;;9.80;50.70;;;;;;5103035;27;35707;-75
2021/12/17 12:18:51;;;;;;;3.08;2.55;;;9.80;51.20;;;;;;5129057;27;34181;-74
2021/12/17 12:21:21;;;;;;;2.40;2.05;;;9.80;51.30;;;;;;5129770;27;34207;-75
2021/12/17 12:23:51;;;;;;;3.13;2.47;;;9.80;51.10;;;;;;5130128;27;34184;-75
2021/12/17 12:26:21;;;;;;;2.25;2.05;;;9.80;51.10;;;;;;5129083;27;35872;-75
2021/12/17 12:29:06;;;;;;;2.40;2.05;;;9.80;51.20;;;;;;5111622;27;34792;-74
2021/12/17 12:31:45;;;;;;;2.83;2.10;;;9.80;49.80;;;;;;5128762;27;34180;-74
2021/12/17 12:34:13;;;;;;;4.05;2.72;;;9.90;50.90;;;;;;5129924;27;34070;-76
2021/12/17 12:36:54;;;;;;;2.95;2.40;;;9.90;51.20;;;;;;5129104;27;34327;-75
2021/12/17 12:39:26;;;;;;;2.60;2.40;;;10.10;50.70;;;;;;5112136;27;34215;-75
2021/12/17 12:42:16;;;;;;;3.70;2.33;;;10.20;50.70;;;;;;5129003;27;34499;-74
2021/12/17 12:45:08;;;;;;;3.47;2.50;;;10.30;49.30;;;;;;5115821;27;34390;-75
2021/12/17 12:47:42;;;;;;;3.33;2.22;;;10.40;48.40;;;;;;5115274;27;35631;-74
2021/12/17 12:50:11;;;;;;;3.63;2.38;;;10.50;50.30;;;;;;5111686;27;34376;-75
2021/12/17 12:52:43;;;;;;;3.47;2.80;;;10.50;50.70;;;;;;5147594;27;34154;-75
2021/12/17 12:55:27;;;;;;;3.22;2.40;;;10.60;49.70;;;;;;5128739;27;34265;-74
2021/12/17 12:58:05;;;;;;;2.60;2.03;;;10.60;48.40;;;;;;5128201;27;36328;-74
2021/12/17 13:00:50;;;;;;;2.97;2.08;;;10.70;49.70;;;;;;5112312;27;34118;-74
2021/12/17 13:03:23;;;;;;;2.20;1.92;;;10.70;49.30;;;;;;5112532;27;34109;-75
2021/12/17 13:05:49;;;;;;;3.60;2.28;;;10.70;50.10;;;;;;5128451;27;34402;-75
2021/12/17 13:08:18;;;;;;;3.00;2.63;;;10.60;50.20;;;;;;5128152;27;36250;-74
2021/12/17 13:10:50;;;;;;;3.20;2.55;;;10.60;50.20;;;;;;5146254;27;34210;-74
2021/12/17 13:13:31;;;;;;;2.47;2.20;;;10.60;50.20;;;;;;5128526;27;34478;-74
2021/12/17 13:16:12;;;;;;;4.47;2.78;;;10.50;50.30;;;;;;5146759;27;34398;-75
2021/12/17 13:21:34;;;;;;;2.70;2.22;;;10.50;50.30;;;;;;5127899;27;34380;-74
2021/12/17 13:24:16;;;;;;;3.35;2.53;;;10.50;50.10;;;;;;5127554;27;34267;-74
2021/12/17 13:26:47;;;;;;;4.22;2.60;;;10.50;50.30;;;;;;5112503;27;34030;-74
2021/12/17 13:29:18;;;;;;;3.50;2.20;;;10.50;50.00;;;;;;5127903;27;35686;-75
2021/12/17 13:31:52;;;;;;;2.70;2.03;;;10.50;50.50;;;;;;5111753;27;34131;-75
2021/12/17 13:34:22;;;;;;;2.78;2.20;;;10.40;49.20;;;;;;5127750;27;34344;-74
2021/12/17 13:36:54;;;;;;;3.70;2.70;;;10.40;50.50;;;;;;5111242;27;34139;-74
2021/12/17 13:39:22;;;;;;;5.00;3.00;;;10.30;50.40;;;;;;5110549;27;35559;-75
2021/12/17 13:41:49;;;;;;;2.75;2.17;;;10.30;50.60;;;;;;5128169;27;34091;-75
2021/12/17 13:44:35;;;;;;;3.15;2.53;;;10.20;50.40;;;;;;5127740;27;34047;-74
2021/12/17 13:47:33;;;;;;;3.30;2.38;;;10.20;49.40;;;;;;5127092;27;34066;-74
2021/12/17 13:50:12;;;;;;;3.00;2.20;;;10.20;49.80;;;;;;5144091;27;34377;-75
2021/12/17 13:52:53;;;;;;;2.85;2.40;;;10.20;50.20;;;;;;5126374;27;34236;-75
2021/12/17 13:55:23;;;;;;;3.80;2.70;;;10.20;50.20;;;;;;5126328;27;34394;-74
2021/12/17 13:57:49;;;;;;;2.92;2.38;;;10.20;50.70;;;;;;5125773;27;34509;-75
2021/12/17 14:00:26;;;;;;;2.88;2.17;;;10.10;50.80;;;;;;5109362;27;34356;-74
2021/12/17 14:02:55;;;;;;;5.32;2.88;;;10.10;50.80;;;;;;5110179;27;34060;-74
2021/12/17 14:05:27;;;;;;;2.83;2.63;;;10.10;50.80;;;;;;5125822;27;34237;-74
2021/12/17 14:07:57;;;;;;;3.97;2.53;;;10.10;51.00;;;;;;5144660;27;34156;-74
2021/12/17 14:10:28;;;;;;;2.50;1.98;;;10.10;51.00;;;;;;5126360;27;34417;-74
2021/12/17 14:12:54;;;;;;;2.20;2.00;;;10.00;50.60;;;;;;5125514;27;34312;-74
2021/12/17 14:15:27;;;;;;;3.15;2.30;;;10.00;50.80;;;;;;5125416;27;34353;-74
2021/12/17 14:17:57;;;;;;;2.63;2.13;;;10.00;50.90;;;;;;5125869;27;34592;-74
2021/12/17 14:20:26;;;;;;;2.58;1.95;;;10.00;50.80;;;;;;5126054;27;34248;-74
2021/12/17 14:22:55;;;;;;;2.08;1.88;;;9.90;51.00;;;;;;5125995;27;34110;-74
2021/12/17 14:25:40;;;;;;;2.28;1.92;;;9.90;51.10;;;;;;5125428;27;34243;-74
2021/12/17 14:28:11;;;;;;;1.77;1.60;;;9.80;50.30;;;;;;5108607;27;34162;-74
2021/12/17 14:30:38;;;;;;;1.83;1.67;;;9.80;51.10;;;;;;5125749;27;35928;-74
2021/12/17 14:33:12;;;;;;;2.40;1.55;;;9.70;51.30;;;;;;5127097;27;34118;-75
2021/12/17 14:35:59;;;;;;;1.83;1.60;;;9.60;51.10;;;;;;5128800;27;34150;-75
2021/12/17 14:38:48;;;;;;;1.58;1.48;;;9.60;51.30;;;;;;5116629;27;34353;-74
2021/12/17 14:41:24;;;;;;;1.58;1.30;;;9.60;50.70;;;;;;5130270;27;36056;-74
2021/12/17 14:43:57;;;;;;;1.20;1.10;;;9.50;51.40;;;;;;5130410;27;34078;-75
2021/12/17 14:46:26;;;;;;;1.55;1.20;;;9.50;51.50;;;;;;5149326;27;34312;-75
2021/12/17 14:49:22;;;;;;;1.38;1.15;;;9.40;52.30;;;;;;5113627;27;34079;-74
2021/12/17 15:00:47;;;;;;;1.48;1.30;;;9.30;51.90;;;;;;5132119;27;34263;-74
2021/12/17 15:05:59;;;;;;;1.33;1.13;;;9.30;51.80;;;;;;5127342;27;34162;-74
2021/12/17 15:08:26;;;;;;;1.50;1.30;;;9.30;51.80;;;;;;5109547;27;34237;-74
2021/12/17 15:10:53;;;;;;;1.30;1.20;;;9.30;51.90;;;;;;5127133;27;34196;-74
2021/12/17 15:13:19;;;;;;;1.35;1.25;;;9.30;51.90;;;;;;5126696;27;35615;-74
2021/12/17 15:15:45;;;;;;;2.35;1.00;;;9.30;51.90;;;;;;5127176;27;34189;-75
2021/12/17 15:18:16;;;;;;;1.40;1.30;;;9.30;51.90;;;;;;5126459;27;34306;-74
2021/12/17 15:20:46;;;;;;;2.08;1.40;;;9.30;51.80;;;;;;5127081;27;34047;-74
2021/12/17 15:23:14;;;;;;;3.33;1.30;;;9.30;52.00;;;;;;5108850;27;35642;-74
2021/12/17 15:25:40;;;;;;;1.75;1.48;;;9.30;51.90;;;;;;5092078;27;34126;-74
2021/12/17 15:28:08;;;;;;;1.80;1.30;;;9.30;52.00;;;;;;5109625;27;34182;-74
2021/12/17 15:30:38;;;;;;;1.25;1.05;;;9.30;52.00;;;;;;5108986;27;34141;-74
2021/12/17 15:33:05;;;;;;;1.58;1.30;;;9.30;52.10;;;;;;5109000;27;35879;-74
2021/12/17 15:35:32;;;;;;;1.77;1.30;;;9.30;52.20;;;;;;5108863;27;34484;-74
2021/12/17 15:38:00;;;;;;;1.38;1.00;;;9.30;52.20;;;;;;5125117;27;34470;-74
2021/12/17 15:40:27;;;;;;;1.38;1.27;;;9.30;52.20;;;;;;5124317;27;34321;-74
2021/12/17 15:43:01;;;;;;;2.28;1.65;;;9.30;52.30;;;;;;5090895;27;36518;-74
2021/12/17 15:45:27;;;;;;;1.63;1.40;;;9.30;52.30;;;;;;5124745;27;34260;-74
2021/12/17 15:47:53;;;;;;;4.28;1.40;;;9.30;52.30;;;;;;5126249;27;34419;-74
2021/12/17 15:50:19;;;;;;;1.77;1.42;;;9.30;52.30;;;;;;5126853;27;34418;-75
2021/12/17 15:52:45;;;;;;;2.70;1.75;;;9.30;52.40;;;;;;5124022;27;36704;-74